• Join FlightAware (Why Join?)
  • Login
  • US Flag 
07:38AM EST


 

Airport Tracker/Info


-or-


 

Live Flight TrackerFlight Track Log ✈ EJA922 ✈ 08-Jul-2014 ✈ KHPN - KPWM

Flight Track Log - Related Links

Times and Time Zones

All times are in EDT time to prevent confusion due to time zone crossing. See the EJA922 flight status page for this flight to view local times or setup timezone preferences in your user account.

Time Position Orientation Groundspeed Altitude Reporting Facility
EDT Latitude Longitude Course Direction KTS MPH feet Rate Location/Type
12:07PM 41.0950 -73.7419 284° West 199 229 2,000  Level Boston Center
12:08PM 41.1103 -73.8211 284° West 212 244 5,000 2,880 Climbing Boston Center
12:09PM 41.1508 -73.8942 306° West 274 315 8,000 2,820 Climbing Boston Center
12:10PM 41.2144 -73.8108 45° Northeast 325 374 10,900 2,280 Climbing Boston Center
12:11PM 41.2531 -73.6792 69° East 379 436 12,700 1,980 Climbing Boston Center
12:12PM 41.3050 -73.5464 62° Northeast 402 463 15,000 2,160 Climbing Boston Center
12:13PM 41.3944 -73.4278 45° Northeast 416 479 17,300 1,860 Climbing Boston Center
12:14PM 41.4778 -73.3167 45° Northeast 425 489 18,900 1,560 Climbing Boston Center
12:15PM 41.5722 -73.2278 35° Northeast 438 504 20,500 1,020 Climbing Boston Center
12:16PM 41.6936 -73.2247 North 437 503 21,000 240 Climbing Boston Center
12:17PM 41.8228 -73.2392 355° North 460 529 21,000  Level Boston Center
12:18PM 41.9547 -73.2500 357° North 470 541 21,000  Level Boston Center
12:19PM 42.0839 -73.2625 356° North 469 540 21,000  Level Boston Center
12:20PM 42.2389 -73.2647 359° North 466 536 21,000  Level Boston Center
12:21PM 42.3500 -73.1733 31° Northeast 476 548 21,000  Level Boston Center
12:22PM 42.4328 -73.0275 52° Northeast 489 563 21,000  Level Boston Center
12:24PM 42.5056 -72.8964 53° Northeast 489 563 21,000  Level Boston Center
12:25PM 42.6039 -72.7206 53° Northeast 489 563 21,000  Level Boston Center
12:26PM 42.6833 -72.5781 53° Northeast 488 562 21,000  Level Boston Center
12:27PM 42.7658 -72.4300 53° Northeast 488 562 21,000  Level Boston Center
12:28PM 42.8475 -72.2819 53° Northeast 488 562 21,000  Level Boston Center
12:29PM 42.9294 -72.1325 53° Northeast 488 562 21,000  Level Boston Center
12:30PM 43.0108 -71.9847 53° Northeast 487 560 21,000  Level Boston Center
12:31PM 43.0911 -71.8356 54° Northeast 488 562 21,000 -420 Level Boston Center
12:32PM 43.1719 -71.6861 53° Northeast 488 562 20,200 -1,920 Descending Boston Center
12:33PM 43.2683 -71.5094 53° Northeast 490 564 17,200 -2,760 Descending Boston Center
12:34PM 43.3494 -71.3567 54° Northeast 463 533 14,600 -2,400 Descending Boston Center
12:35PM 43.4214 -71.2200 54° Northeast 445 512 12,200 -1,740 Descending Boston Center
12:36PM 43.4817 -71.0764 60° Northeast 436 502 11,000 -780 Descending Boston Center
12:38PM 43.5361 -70.7783 76° East 338 389 10,000 -960 Descending Boston Center
12:39PM 43.5469 -70.6550 83° East 325 374 8,200 -1,680 Descending Boston Center
12:40PM 43.5594 -70.5367 82° East 317 365 6,600 -1,860 Descending Boston Center
12:41PM 43.5742 -70.4150 80° East 302 348 4,500 -1,920 Descending Boston Center
12:42PM 43.5939 -70.3131 75° East 280 322 2,600 -1,500 Descending Boston Center
12:43PM 43.6089 -70.2089 79° East 259 298 1,400 -600 Descending Boston Center
12:44PM 43.6397 -70.1569 51° Northeast 211 243 1,500 -180 Climbing Boston Center
12:45PM 43.6597 -70.2014 302° West 159 183 1,100 -420 Descending Boston Center
12:46PM 43.6492 -70.2500 253° West 132 152 700 -540 Descending Boston Center
12:47PM 43.6436 -70.2953 260° West 128 147 100 -300 Descending Boston Center
12:48PM 43.6467 -70.3400 275° West 129 148 100  Level Boston Center
12:50PM 43.6456 -70.3086 257° West  Level Estimated